Time;durP1;ratioP1;P1;durP2;ratioP2;P2;SDS_P1;SDS_P2;PMS_P1;PMS_P2;Temp;Humidity;BMP_temperature;BMP_pressure;BME280_temperature;BME280_humidity;BME280_pressure;Samples;Min_cycle;Max_cycle;Signal;HPM_P1;HPM_P2
2023/08/20 00:00:16;;;;;;;14.90;13.23;;;;;;;16.23;100.00;102000.22;4966153;28;20034;-72
2023/08/20 00:02:43;;;;;;;24.33;17.27;;;;;;;16.26;100.00;102000.16;4958431;28;20136;-72
2023/08/20 00:05:09;;;;;;;20.73;16.05;;;;;;;16.31;100.00;102005.38;4982966;28;20109;-72
2023/08/20 00:07:35;;;;;;;14.73;13.13;;;;;;;16.26;100.00;102008.09;5002117;28;20062;-71
2023/08/20 00:10:02;;;;;;;13.00;11.68;;;;;;;16.20;100.00;102016.09;4989283;28;20070;-72
2023/08/20 00:12:28;;;;;;;14.95;13.25;;;;;;;16.27;100.00;102015.09;4973740;28;20060;-72
2023/08/20 00:15:05;;;;;;;14.45;12.30;;;;;;;16.25;100.00;102016.91;4961199;28;20061;-72
2023/08/20 00:17:38;;;;;;;16.92;12.27;;;;;;;16.24;100.00;102019.59;4993388;28;20416;-72
2023/08/20 00:20:10;;;;;;;13.20;11.85;;;;;;;16.20;100.00;102009.97;4993981;28;20034;-72
2023/08/20 00:22:36;;;;;;;14.25;11.63;;;;;;;16.22;100.00;102013.44;4964798;28;20834;-72
2023/08/20 00:25:05;;;;;;;15.57;12.20;;;;;;;16.08;100.00;102021.63;4977775;28;20124;-72
2023/08/20 00:27:31;;;;;;;13.48;12.15;;;;;;;16.07;100.00;102012.78;4990735;28;20030;-72
2023/08/20 00:29:57;;;;;;;15.02;12.80;;;;;;;16.10;100.00;102006.59;4967471;28;20035;-72
2023/08/20 00:32:22;;;;;;;17.63;15.38;;;;;;;16.07;100.00;102006.63;4939966;28;20089;-72
2023/08/20 00:34:48;;;;;;;16.55;14.95;;;;;;;16.05;100.00;102004.03;4958201;28;20044;-72
2023/08/20 00:37:13;;;;;;;15.90;14.40;;;;;;;16.00;100.00;102007.63;4961987;28;20439;-72
2023/08/20 00:39:39;;;;;;;19.55;16.42;;;;;;;15.92;100.00;102008.63;4963680;28;20204;-72
2023/08/20 00:42:05;;;;;;;17.33;15.60;;;;;;;16.02;100.00;102014.66;4955246;28;20030;-72
2023/08/20 00:44:31;;;;;;;16.85;13.32;;;;;;;16.02;100.00;102021.69;5006617;28;20052;-72
2023/08/20 00:47:00;;;;;;;13.55;12.15;;;;;;;15.99;100.00;102030.56;4993279;28;20081;-72
2023/08/20 00:49:25;;;;;;;14.40;12.88;;;;;;;16.03;100.00;102028.72;5010674;28;20022;-72
2023/08/20 00:51:51;;;;;;;15.13;12.60;;;;;;;15.69;100.00;102027.44;4977379;28;20029;-72
2023/08/20 00:54:17;;;;;;;14.57;13.13;;;;;;;15.80;100.00;102031.72;4995095;28;20100;-72
2023/08/20 00:56:42;;;;;;;13.60;12.25;;;;;;;15.81;100.00;102041.41;4997736;28;20026;-72
2023/08/20 00:59:08;;;;;;;17.13;12.52;;;;;;;15.80;100.00;102043.16;4996453;28;20470;-72
2023/08/20 01:01:34;;;;;;;12.75;11.45;;;;;;;15.87;100.00;102043.97;4982055;28;20029;-72
2023/08/20 01:03:59;;;;;;;15.25;13.05;;;;;;;15.75;100.00;102043.19;4961795;28;20518;-72
2023/08/20 01:06:54;;;;;;;13.43;10.75;;;;;;;15.90;100.00;102054.47;4996984;28;20471;-72
2023/08/20 01:09:48;;;;;;;10.77;9.80;;;;;;;15.96;100.00;102051.78;4994224;28;20036;-72
2023/08/20 01:12:16;;;;;;;13.85;11.65;;;;;;;15.75;100.00;102053.78;4997175;28;20034;-72
2023/08/20 01:14:41;;;;;;;11.38;10.05;;;;;;;15.79;100.00;102065.22;4993484;28;20034;-72
2023/08/20 01:17:07;;;;;;;12.23;10.45;;;;;;;15.87;100.00;102079.19;4979857;28;20367;-72
2023/08/20 01:19:32;;;;;;;14.00;11.52;;;;;;;15.98;100.00;102083.47;4990089;28;20057;-72
2023/08/20 01:22:13;;;;;;;14.23;12.05;;;;;;;15.89;100.00;102090.63;4978862;28;20030;-71
2023/08/20 01:27:48;;;;;;;16.33;12.77;;;;;;;15.89;100.00;102084.47;5459516;22;20421;-71
2023/08/20 01:30:14;;;;;;;14.65;12.93;;;;;;;15.82;100.00;102081.03;5261184;22;20066;-71
2023/08/20 01:35:16;;;;;;;14.43;11.65;;;;;;;15.97;100.00;102079.94;5223350;22;20065;-71
2023/08/20 01:37:42;;;;;;;13.63;11.30;;;;;;;15.97;100.00;102076.44;5257993;23;20393;-71
2023/08/20 01:40:10;;;;;;;15.10;13.50;;;;;;;15.98;100.00;102079.03;5107286;23;20485;-71
2023/08/20 01:42:36;;;;;;;14.00;12.70;;;;;;;15.99;100.00;102079.91;5113801;23;20049;-71
2023/08/20 01:45:01;;;;;;;16.48;14.50;;;;;;;16.10;100.00;102072.69;4977830;28;20104;-72
2023/08/20 01:47:28;;;;;;;15.63;14.05;;;;;;;16.13;100.00;102075.28;5007082;28;20033;-72
2023/08/20 01:49:53;;;;;;;17.27;15.55;;;;;;;16.15;100.00;102064.69;5053366;23;20072;-70
2023/08/20 01:52:19;;;;;;;18.10;16.40;;;;;;;16.16;100.00;102069.09;5282370;22;20081;-70
2023/08/20 01:54:44;;;;;;;19.33;17.38;;;;;;;16.12;100.00;102073.56;5216105;22;20143;-71
2023/08/20 01:57:10;;;;;;;18.50;16.58;;;;;;;16.17;100.00;102076.13;4991405;28;20047;-70
2023/08/20 01:59:36;;;;;;;22.15;20.00;;;;;;;16.20;100.00;102076.94;5009407;28;20033;-70
2023/08/20 02:02:02;;;;;;;22.80;20.50;;;;;;;16.25;100.00;102085.69;5118798;23;20066;-71
2023/08/20 02:06:55;;;;;;;22.92;20.63;;;;;;;16.33;100.00;102088.19;5365652;22;20497;-71
2023/08/20 02:11:56;;;;;;;22.77;19.25;;;;;;;16.39;100.00;102092.50;5516250;22;20064;-71
2023/08/20 02:14:21;;;;;;;22.73;18.88;;;;;;;16.48;100.00;102095.03;5012292;28;20028;-70
2023/08/20 02:16:47;;;;;;;19.55;17.60;;;;;;;16.55;100.00;102095.78;5017063;28;20034;-70
2023/08/20 02:19:14;;;;;;;19.30;17.60;;;;;;;16.61;100.00;102099.22;5029186;28;20107;-70
2023/08/20 02:21:39;;;;;;;20.95;18.77;;;;;;;16.68;100.00;102109.69;5311105;23;20053;-72
2023/08/20 02:26:34;;;;;;;18.38;16.50;;;;;;;16.80;100.00;102096.25;5042599;28;20052;-72
2023/08/20 02:28:59;;;;;;;18.55;16.70;;;;;;;16.85;100.00;102101.44;5018103;28;20040;-72
2023/08/20 02:31:24;;;;;;;19.15;16.52;;;;;;;16.96;100.00;102103.03;4994081;28;20030;-72
2023/08/20 02:33:50;;;;;;;18.27;16.08;;;;;;;16.99;100.00;102091.50;5024500;28;20025;-72
2023/08/20 02:36:15;;;;;;;17.75;14.65;;;;;;;17.05;100.00;102093.16;5010594;28;20036;-72
2023/08/20 02:38:41;;;;;;;16.08;14.35;;;;;;;17.02;100.00;102099.41;5006548;28;20124;-72
2023/08/20 02:41:06;;;;;;;17.63;15.15;;;;;;;16.90;100.00;102100.50;5007773;28;20473;-72
2023/08/20 02:43:32;;;;;;;16.27;13.82;;;;;;;16.97;100.00;102103.91;5028499;28;20033;-72
2023/08/20 02:45:57;;;;;;;15.60;13.68;;;;;;;16.95;100.00;102098.66;5016206;28;20131;-72
2023/08/20 02:48:27;;;;;;;15.95;13.50;;;;;;;16.89;100.00;102098.75;5018408;28;20068;-72
2023/08/20 02:50:55;;;;;;;15.98;13.48;;;;;;;16.88;100.00;102097.03;5019926;28;20029;-72
2023/08/20 02:53:22;;;;;;;18.52;12.73;;;;;;;16.71;100.00;102084.06;5012765;28;20021;-72
2023/08/20 02:55:50;;;;;;;20.60;13.52;;;;;;;16.74;100.00;102096.38;5027245;28;20366;-73
2023/08/20 02:58:15;;;;;;;14.27;12.77;;;;;;;16.72;100.00;102088.44;5012910;28;20033;-72
2023/08/20 03:00:44;;;;;;;12.18;10.98;;;;;;;16.60;100.00;102080.72;5030423;28;20033;-70
2023/08/20 03:03:09;;;;;;;12.82;11.32;;;;;;;16.43;100.00;102073.94;5023237;28;20043;-70
2023/08/20 03:05:35;;;;;;;17.38;14.73;;;;;;;16.42;100.00;102076.59;5014213;28;20426;-70
2023/08/20 03:08:03;;;;;;;13.65;12.35;;;;;;;16.42;100.00;102088.06;5014441;28;20030;-70
2023/08/20 03:10:32;;;;;;;12.38;11.20;;;;;;;16.36;100.00;102085.50;5025125;28;20033;-70
2023/08/20 03:13:02;;;;;;;15.93;12.63;;;;;;;16.30;100.00;102079.44;5014886;28;20021;-70
2023/08/20 03:15:30;;;;;;;16.85;12.25;;;;;;;16.27;100.00;102080.38;5027770;28;20090;-70
2023/08/20 03:17:56;;;;;;;12.20;10.50;;;;;;;16.16;100.00;102075.25;5006212;28;20029;-70
2023/08/20 03:20:22;;;;;;;11.02;9.88;;;;;;;16.08;100.00;102077.16;4987971;28;20093;-70
2023/08/20 03:22:48;;;;;;;13.27;12.05;;;;;;;15.89;100.00;102071.25;5018258;28;20025;-70
2023/08/20 03:25:14;;;;;;;14.93;13.45;;;;;;;15.87;100.00;102075.69;5045913;28;20053;-70
2023/08/20 03:27:46;;;;;;;14.55;10.88;;;;;;;15.91;100.00;102080.88;5014451;28;20420;-70
2023/08/20 03:30:11;;;;;;;12.95;9.20;;;;;;;15.78;100.00;102087.22;4998167;28;20025;-70
2023/08/20 03:32:39;;;;;;;13.40;11.05;;;;;;;15.81;100.00;102087.22;5007498;28;20154;-70
2023/08/20 03:35:05;;;;;;;11.63;10.43;;;;;;;15.71;100.00;102082.91;5015919;28;20065;-70
2023/08/20 03:37:30;;;;;;;11.02;9.93;;;;;;;15.68;100.00;102085.59;5005360;28;20059;-70
2023/08/20 03:39:56;;;;;;;13.10;10.05;;;;;;;15.67;100.00;102086.47;5015109;28;20109;-70
2023/08/20 03:42:21;;;;;;;14.18;10.18;;;;;;;15.49;100.00;102084.97;5007408;28;20037;-70
2023/08/20 03:44:47;;;;;;;12.10;10.80;;;;;;;15.54;100.00;102085.78;4996813;28;20054;-70
2023/08/20 03:47:12;;;;;;;73.95;14.55;;;;;;;15.48;100.00;102086.72;5001136;28;20129;-70
2023/08/20 03:49:37;;;;;;;128.60;18.40;;;;;;;15.48;100.00;102091.13;5010924;28;20026;-70
2023/08/20 03:52:03;;;;;;;15.68;13.43;;;;;;;15.35;100.00;102085.13;5031704;28;20127;-70
2023/08/20 03:54:30;;;;;;;16.58;14.73;;;;;;;15.27;100.00;102095.78;5016555;28;20434;-70
2023/08/20 03:56:55;;;;;;;20.70;14.90;;;;;;;15.14;100.00;102092.41;5030117;28;20017;-70
2023/08/20 03:59:21;;;;;;;13.52;12.13;;;;;;;15.15;100.00;102091.50;5008690;28;20037;-70
2023/08/20 04:01:46;;;;;;;31.20;13.73;;;;;;;15.11;100.00;102095.06;5013300;28;20382;-70
2023/08/20 04:04:12;;;;;;;16.42;14.70;;;;;;;15.09;100.00;102098.63;5016783;28;20033;-70
2023/08/20 04:06:37;;;;;;;16.35;14.75;;;;;;;15.07;100.00;102101.28;4986431;28;20045;-70
2023/08/20 04:09:03;;;;;;;15.98;14.20;;;;;;;15.06;100.00;102096.88;5025164;28;20021;-70
2023/08/20 04:11:28;;;;;;;12.75;11.55;;;;;;;15.06;100.00;102108.31;5016721;28;20043;-71
2023/08/20 04:13:54;;;;;;;12.90;11.70;;;;;;;14.97;100.00;102104.88;5014100;28;20040;-72
2023/08/20 04:16:21;;;;;;;14.02;12.10;;;;;;;15.04;100.00;102117.13;5013460;28;20090;-72
2023/08/20 04:18:46;;;;;;;14.30;11.85;;;;;;;15.06;100.00;102110.94;4993585;28;20128;-72
2023/08/20 04:21:13;;;;;;;12.23;11.02;;;;;;;15.07;100.00;102107.44;5001562;28;20037;-70
2023/08/20 04:23:38;;;;;;;11.23;10.13;;;;;;;14.88;100.00;102109.38;5016435;28;20383;-70
2023/08/20 04:26:04;;;;;;;11.88;10.68;;;;;;;15.03;100.00;102110.13;5016533;28;20141;-70
2023/08/20 04:28:29;;;;;;;11.10;9.95;;;;;;;14.82;100.00;102106.78;5021228;28;20033;-70
2023/08/20 04:30:56;;;;;;;11.75;10.55;;;;;;;15.01;100.00;102115.41;5004133;28;20053;-70
2023/08/20 04:33:21;;;;;;;10.02;8.55;;;;;;;15.04;100.00;102114.50;5018797;28;20040;-70
2023/08/20 04:35:50;;;;;;;11.48;10.27;;;;;;;14.86;100.00;102119.06;5013674;28;20029;-70
2023/08/20 04:38:16;;;;;;;11.90;9.85;;;;;;;14.84;100.00;102114.69;4999015;28;20074;-70
2023/08/20 04:40:41;;;;;;;10.63;9.52;;;;;;;15.01;100.00;102123.34;5037227;28;20107;-70
2023/08/20 04:43:07;;;;;;;11.40;10.40;;;;;;;15.02;100.00;102124.22;5020847;28;20035;-70
2023/08/20 04:45:32;;;;;;;11.32;10.23;;;;;;;15.05;100.00;102122.41;5016127;28;20481;-70
2023/08/20 04:47:59;;;;;;;9.60;7.75;;;;;;;15.04;100.00;102122.41;5004049;28;20032;-70
2023/08/20 04:50:25;;;;;;;8.57;7.68;;;;;;;14.93;100.00;102124.28;5037295;28;20079;-70
2023/08/20 04:52:52;;;;;;;7.25;6.47;;;;;;;14.81;100.00;102130.53;5019850;28;20033;-70
2023/08/20 04:55:18;;;;;;;8.02;7.22;;;;;;;14.80;100.00;102128.81;5017349;28;20037;-70
2023/08/20 04:57:43;;;;;;;8.57;7.78;;;;;;;14.79;100.00;102122.66;5001167;28;20037;-71
2023/08/20 05:00:09;;;;;;;11.70;8.93;;;;;;;14.87;100.00;102118.19;5013133;28;20037;-70
2023/08/20 05:02:35;;;;;;;11.25;9.25;;;;;;;14.79;100.00;102111.22;5020612;28;20056;-70
2023/08/20 05:05:02;;;;;;;12.85;11.18;;;;;;;14.75;100.00;102114.78;5006039;28;20026;-70
2023/08/20 05:07:27;;;;;;;12.68;11.52;;;;;;;14.85;100.00;102108.53;4996942;28;20499;-71
2023/08/20 05:09:53;;;;;;;13.13;11.75;;;;;;;14.97;100.00;102112.81;5012940;28;20103;-71
2023/08/20 05:12:18;;;;;;;13.75;12.35;;;;;;;15.04;100.00;102117.13;5019994;28;20033;-70
2023/08/20 05:14:43;;;;;;;11.98;10.77;;;;;;;15.18;100.00;102120.50;5036086;28;20086;-70
2023/08/20 05:17:09;;;;;;;14.68;11.63;;;;;;;15.19;100.00;102130.19;5018142;28;20040;-70
2023/08/20 05:19:34;;;;;;;13.38;11.18;;;;;;;15.39;100.00;102129.97;5027285;28;20030;-70
2023/08/20 05:22:00;;;;;;;13.13;10.75;;;;;;;15.49;100.00;102130.75;5005288;28;20037;-70
2023/08/20 05:24:25;;;;;;;11.65;10.35;;;;;;;15.46;100.00;102136.06;5009181;28;20061;-72
2023/08/20 05:27:23;;;;;;;12.35;9.88;;;;;;;15.56;100.00;102142.97;5015899;28;20033;-72
2023/08/20 05:29:49;;;;;;;11.27;10.18;;;;;;;15.68;100.00;102136.66;4991713;28;20048;-72
2023/08/20 05:32:16;;;;;;;12.90;11.25;;;;;;;15.84;100.00;102147.94;5016449;28;20036;-72
2023/08/20 05:34:41;;;;;;;13.20;11.85;;;;;;;16.02;100.00;102140.66;5019091;28;20091;-72
2023/08/20 05:37:09;;;;;;;13.43;12.02;;;;;;;16.14;100.00;102145.78;5026451;28;20033;-72
2023/08/20 05:39:42;;;;;;;13.52;11.48;;;;;;;16.33;100.00;102143.75;5000948;28;20033;-72
2023/08/20 05:42:08;;;;;;;12.38;11.23;;;;;;;16.45;100.00;102145.34;5015768;28;20053;-72
2023/08/20 05:44:33;;;;;;;14.57;13.02;;;;;;;16.65;100.00;102147.69;5015988;28;20064;-71
2023/08/20 05:46:59;;;;;;;14.93;13.02;;;;;;;16.81;100.00;102145.66;5006553;28;20876;-72
2023/08/20 05:49:24;;;;;;;17.50;15.63;;;;;;;17.03;100.00;102150.59;5013054;28;20543;-72
2023/08/20 05:51:50;;;;;;;22.55;20.30;;;;;;;17.12;100.00;102145.13;5024324;28;20057;-72
2023/08/20 05:54:15;;;;;;;24.40;22.00;;;;;;;17.33;100.00;102156.25;5007005;28;20120;-72
2023/08/20 05:56:40;;;;;;;23.08;20.67;;;;;;;17.50;100.00;102148.84;5011817;28;20033;-72
2023/08/20 05:59:06;;;;;;;23.45;21.05;;;;;;;17.68;100.00;102144.91;5011929;28;20448;-72
2023/08/20 06:01:31;;;;;;;23.08;20.67;;;;;;;17.87;100.00;102152.47;5008772;28;20392;-72
2023/08/20 06:03:57;;;;;;;22.65;20.27;;;;;;;18.12;100.00;102148.41;5006491;28;20396;-72
2023/08/20 06:06:23;;;;;;;24.17;21.67;;;;;;;18.26;100.00;102149.88;5014703;28;20026;-72
2023/08/20 06:08:49;;;;;;;19.20;17.30;;;;;;;18.58;100.00;102151.78;5018638;28;20523;-70
2023/08/20 06:11:14;;;;;;;15.93;14.07;;;;;;;19.00;100.00;102151.63;5005823;28;20128;-71
2023/08/20 06:13:39;;;;;;;17.83;15.57;;;;;;;19.32;100.00;102151.66;5007670;28;20052;-70
2023/08/20 06:16:07;;;;;;;18.40;16.52;;;;;;;19.87;100.00;102154.59;5007987;28;20037;-70
2023/08/20 06:18:32;;;;;;;17.05;12.82;;;;;;;20.36;100.00;102149.53;5027892;28;20082;-71
2023/08/20 06:20:58;;;;;;;13.38;10.68;;;;;;;20.88;98.28;102161.13;5016598;28;20431;-70
2023/08/20 06:23:23;;;;;;;13.68;10.15;;;;;;;21.45;96.64;102150.25;5018559;28;20043;-71
2023/08/20 06:25:50;;;;;;;13.02;8.43;;;;;;;21.70;90.94;102160.91;5014900;28;20046;-71
2023/08/20 06:28:15;;;;;;;14.65;8.52;;;;;;;22.34;91.12;102158.47;5011513;28;20032;-70
2023/08/20 06:30:41;;;;;;;10.95;7.97;;;;;;;22.62;85.42;102159.06;4998094;28;20385;-71
2023/08/20 06:33:06;;;;;;;14.55;7.10;;;;;;;22.94;82.94;102164.00;4995229;28;20489;-71
2023/08/20 06:35:32;;;;;;;9.95;6.68;;;;;;;23.57;85.29;102163.06;5030309;28;20032;-70
2023/08/20 06:37:57;;;;;;;11.50;6.47;;;;;;;24.07;82.47;102162.53;5016300;28;20045;-70
2023/08/20 06:40:23;;;;;;;11.73;6.90;;;;;;;24.24;78.71;102166.19;5013275;28;20469;-70
2023/08/20 06:42:48;;;;;;;9.65;5.90;;;;;;;24.26;75.48;102164.31;5009998;28;20152;-70
2023/08/20 06:45:13;;;;;;;11.32;5.55;;;;;;;24.30;73.33;102161.41;5028978;28;20477;-70
2023/08/20 06:47:40;;;;;;;11.75;5.47;;;;;;;24.45;72.07;102161.59;4980192;28;20082;-71
2023/08/20 06:50:06;;;;;;;12.10;5.38;;;;;;;24.75;71.69;102158.34;4984459;28;20021;-71
2023/08/20 06:52:31;;;;;;;10.43;5.05;;;;;;;24.88;70.73;102164.81;5005977;28;20040;-72
2023/08/20 06:54:57;;;;;;;10.48;5.07;;;;;;;25.08;67.65;102172.72;5001151;28;20025;-71
2023/08/20 06:57:22;;;;;;;9.75;4.53;;;;;;;25.59;68.09;102178.09;4993359;28;20025;-71
2023/08/20 06:59:50;;;;;;;9.98;4.45;;;;;;;25.89;68.63;102174.66;5001009;28;20454;-71
2023/08/20 07:02:15;;;;;;;13.07;5.10;;;;;;;26.31;65.93;102174.19;5005442;28;20478;-71
2023/08/20 07:04:41;;;;;;;8.98;4.32;;;;;;;25.61;60.46;102169.09;4997760;28;20083;-71
2023/08/20 07:07:07;;;;;;;10.82;4.30;;;;;;;26.05;63.85;102163.97;5010057;28;20171;-72
2023/08/20 07:09:33;;;;;;;9.45;4.18;;;;;;;26.24;63.62;102170.97;5007217;28;20025;-72
2023/08/20 07:11:59;;;;;;;9.60;4.03;;;;;;;26.14;62.77;102170.63;5040845;28;20462;-72
2023/08/20 07:14:24;;;;;;;11.48;4.25;;;;;;;26.21;63.67;102168.47;5002816;28;20025;-72
2023/08/20 07:16:51;;;;;;;10.35;4.07;;;;;;;26.14;63.17;102173.31;4994473;28;20025;-72
2023/08/20 07:19:16;;;;;;;11.05;4.60;;;;;;;26.19;62.89;102181.09;5024626;28;20063;-71
2023/08/20 07:21:41;;;;;;;10.25;4.05;;;;;;;25.94;62.11;102177.94;4991081;28;20037;-71
2023/08/20 07:24:07;;;;;;;11.52;3.42;;;;;;;26.04;61.88;102177.47;5003712;28;20021;-71
2023/08/20 07:26:33;;;;;;;9.75;3.58;;;;;;;25.88;61.74;102178.28;4992024;28;20054;-70
2023/08/20 07:28:59;;;;;;;8.65;3.38;;;;;;;25.61;61.62;102183.38;4994249;28;20033;-71
2023/08/20 07:31:34;;;;;;;8.70;3.22;;;;;;;25.62;63.07;102176.19;5006487;28;20029;-71
2023/08/20 07:34:02;;;;;;;8.10;2.97;;;;;;;25.33;60.13;102186.66;5012443;28;20103;-71
2023/08/20 07:36:28;;;;;;;9.30;3.38;;;;;;;25.44;61.55;102178.91;5007729;28;20361;-71
2023/08/20 07:38:54;;;;;;;7.38;3.63;;;;;;;25.05;60.06;102175.53;4992023;28;20026;-71
2023/08/20 07:41:20;;;;;;;7.88;3.17;;;;;;;25.11;61.96;102182.38;4995333;28;20121;-71
2023/08/20 07:43:46;;;;;;;6.10;2.83;;;;;;;25.04;62.48;102180.97;5008223;28;20108;-71
2023/08/20 07:46:12;;;;;;;8.43;3.03;;;;;;;25.01;62.92;102182.03;5030563;28;20362;-70
2023/08/20 07:48:38;;;;;;;6.47;2.53;;;;;;;25.11;62.50;102182.38;4977623;28;20029;-71
2023/08/20 07:51:04;;;;;;;9.23;2.88;;;;;;;25.18;61.04;102185.63;4993009;28;20446;-71
2023/08/20 07:53:30;;;;;;;7.07;2.90;;;;;;;25.01;60.85;102192.75;4990921;28;20030;-70
2023/08/20 07:55:56;;;;;;;5.47;2.58;;;;;;;24.87;61.96;102190.75;5003117;28;20085;-71
2023/08/20 07:58:22;;;;;;;6.57;2.15;;;;;;;24.76;62.08;102190.44;5011389;28;20516;-72
2023/08/20 08:00:47;;;;;;;6.38;2.40;;;;;;;24.40;61.43;102185.94;4982062;28;20128;-71
2023/08/20 08:03:14;;;;;;;7.05;2.40;;;;;;;24.52;61.69;102196.06;4969024;28;20036;-71
2023/08/20 08:05:40;;;;;;;7.55;2.45;;;;;;;24.39;61.65;102192.22;4978919;28;20388;-71
2023/08/20 08:08:06;;;;;;;7.00;2.53;;;;;;;24.48;62.88;102198.94;4982097;28;20093;-71
2023/08/20 08:10:31;;;;;;;6.07;2.70;;;;;;;24.29;62.44;102202.50;4981922;28;20529;-71
2023/08/20 08:12:57;;;;;;;8.40;2.70;;;;;;;24.31;62.61;102202.44;5017619;28;20441;-71
2023/08/20 08:15:22;;;;;;;5.28;2.38;;;;;;;24.29;61.73;102197.16;4997827;28;20336;-71
2023/08/20 08:17:47;;;;;;;8.02;2.90;;;;;;;24.08;62.73;102190.16;4997510;28;20438;-71
2023/08/20 08:20:13;;;;;;;6.63;2.97;;;;;;;24.01;65.99;102190.44;4994800;28;20392;-72
2023/08/20 08:22:39;;;;;;;7.53;3.03;;;;;;;23.93;64.66;102208.69;4981225;28;20460;-72
2023/08/20 08:25:05;;;;;;;7.65;3.25;;;;;;;23.67;65.08;102207.19;4990684;28;20065;-72
2023/08/20 08:27:30;;;;;;;6.22;3.30;;;;;;;23.74;65.15;102205.97;4997795;28;20117;-71
2023/08/20 08:29:56;;;;;;;6.65;2.90;;;;;;;23.73;64.34;102212.25;4984434;28;20034;-70
2023/08/20 08:32:21;;;;;;;8.05;3.50;;;;;;;23.63;63.82;102216.28;5015934;28;20343;-70
2023/08/20 08:34:47;;;;;;;7.82;3.10;;;;;;;23.64;64.32;102220.69;5013832;28;20549;-70
2023/08/20 08:37:12;;;;;;;8.77;4.30;;;;;;;23.48;64.76;102216.03;5015412;28;20060;-71
2023/08/20 08:39:38;;;;;;;8.10;3.67;;;;;;;23.42;64.62;102212.75;4999111;28;20060;-70
2023/08/20 08:42:07;;;;;;;8.23;4.43;;;;;;;23.51;65.35;102223.91;5013256;28;20030;-71
2023/08/20 08:44:33;;;;;;;8.10;3.90;;;;;;;23.54;66.23;102217.56;4992140;28;20342;-70
2023/08/20 08:46:59;;;;;;;13.68;4.90;;;;;;;23.59;67.85;102212.00;5038318;28;20022;-71
2023/08/20 08:49:25;;;;;;;8.77;4.40;;;;;;;23.66;67.31;102214.34;5036411;28;20057;-71
2023/08/20 08:51:56;;;;;;;8.52;4.35;;;;;;;23.73;67.13;102222.94;4997679;28;20024;-71
2023/08/20 08:54:22;;;;;;;8.55;4.75;;;;;;;23.86;67.95;102217.91;5034633;28;20028;-71
2023/08/20 08:56:47;;;;;;;8.80;4.68;;;;;;;23.90;65.94;102222.22;5014191;28;20151;-70
2023/08/20 08:59:13;;;;;;;10.75;4.70;;;;;;;23.83;65.63;102218.03;5008844;28;20038;-70
2023/08/20 09:01:39;;;;;;;9.13;4.85;;;;;;;23.89;66.28;102214.25;4998481;28;20083;-71
2023/08/20 09:04:05;;;;;;;8.20;4.13;;;;;;;23.91;65.71;102220.41;5014774;28;20041;-70
2023/08/20 09:06:51;;;;;;;7.80;4.05;;;;;;;23.92;66.79;102223.03;5020565;28;20448;-71
2023/08/20 09:09:17;;;;;;;8.43;4.00;;;;;;;23.81;66.06;102231.50;5014978;28;20553;-70
2023/08/20 09:11:43;;;;;;;9.27;4.45;;;;;;;23.87;64.24;102217.00;5022880;28;20088;-70
2023/08/20 09:14:21;;;;;;;8.48;3.80;;;;;;;24.08;65.00;102216.94;4993197;28;20512;-71
2023/08/20 09:16:54;;;;;;;7.03;3.50;;;;;;;24.00;63.90;102225.34;5037173;28;20160;-71
2023/08/20 09:19:19;;;;;;;8.55;3.15;;;;;;;24.07;63.67;102221.44;5010664;28;20029;-71
2023/08/20 09:21:46;;;;;;;6.93;2.35;;;;;;;24.00;64.01;102225.34;4999586;28;20385;-71
2023/08/20 09:24:12;;;;;;;5.68;2.00;;;;;;;24.09;62.69;102216.84;5000246;28;20509;-70
2023/08/20 09:26:37;;;;;;;4.90;2.00;;;;;;;24.07;61.01;102218.75;4999934;28;20057;-71
2023/08/20 09:29:03;;;;;;;3.42;1.73;;;;;;;24.11;57.40;102223.03;5018739;28;20021;-70
2023/08/20 09:31:39;;;;;;;4.88;1.33;;;;;;;24.25;59.47;102221.50;5036470;28;20116;-70
2023/08/20 09:34:05;;;;;;;3.40;1.38;;;;;;;24.00;60.63;102219.97;5018285;28;20017;-71
2023/08/20 09:36:34;;;;;;;2.03;0.98;;;;;;;24.16;58.17;102220.97;5015386;28;20032;-70
2023/08/20 09:39:03;;;;;;;2.85;1.15;;;;;;;24.26;57.56;102221.41;5016258;28;20109;-70
2023/08/20 09:41:30;;;;;;;2.30;0.80;;;;;;;24.20;57.68;102221.72;5014697;28;20033;-70
2023/08/20 09:43:59;;;;;;;3.83;1.27;;;;;;;24.18;58.75;102220.94;5027223;28;20084;-70
2023/08/20 09:46:27;;;;;;;2.70;1.00;;;;;;;24.29;57.44;102223.09;5016210;28;20091;-70
2023/08/20 09:48:56;;;;;;;3.67;1.13;;;;;;;24.19;58.41;102226.22;5006646;28;20136;-69
2023/08/20 09:51:26;;;;;;;5.03;1.38;;;;;;;24.23;58.17;102231.44;5033200;28;20034;-70
2023/08/20 09:53:57;;;;;;;;;;;;;;;24.53;60.47;102229.94;5035026;28;20055;-70
2023/08/20 09:56:31;;;;;;;2.50;0.73;;;;;;;24.18;56.33;102228.97;5033358;28;19913;-70
2023/08/20 09:59:01;;;;;;;2.75;1.00;;;;;;;24.15;55.18;102232.66;5022730;28;20091;-69
2023/08/20 10:01:27;;;;;;;2.17;0.82;;;;;;;24.17;54.31;102227.22;5035142;28;20025;-70
2023/08/20 10:03:53;;;;;;;1.88;0.70;;;;;;;24.18;57.62;102224.47;5023365;28;20393;-70
2023/08/20 10:06:21;;;;;;;1.98;0.57;;;;;;;24.20;53.50;102227.06;5004362;28;20084;-70
2023/08/20 10:08:49;;;;;;;2.33;0.80;;;;;;;24.15;53.03;102221.06;5013759;28;20044;-70
2023/08/20 10:11:14;;;;;;;1.65;0.68;;;;;;;24.28;57.57;102224.03;5034845;28;20071;-70
2023/08/20 10:13:40;;;;;;;3.67;1.10;;;;;;;24.32;56.42;102221.16;5018904;28;20416;-70
2023/08/20 10:16:07;;;;;;;2.22;1.00;;;;;;;24.40;57.02;102223.44;5021342;28;20013;-70
2023/08/20 10:18:35;;;;;;;2.53;1.20;;;;;;;24.19;54.39;102219.97;4998536;28;20076;-70
2023/08/20 10:21:01;;;;;;;2.38;0.60;;;;;;;24.21;55.64;102224.31;5034496;28;20040;-70
2023/08/20 10:23:26;;;;;;;2.45;0.80;;;;;;;24.18;54.76;102220.94;5022046;28;20053;-69
2023/08/20 10:25:53;;;;;;;1.88;1.00;;;;;;;24.21;55.73;102218.97;5011637;28;20063;-70
2023/08/20 10:28:26;;;;;;;2.42;0.98;;;;;;;24.25;57.23;102221.50;4999278;28;20045;-70
2023/08/20 10:31:06;;;;;;;3.50;1.27;;;;;;;24.33;56.36;102222.00;5014892;28;20032;-70
2023/08/20 10:33:35;;;;;;;3.25;0.82;;;;;;;24.31;54.72;102215.84;5017922;28;20024;-69
2023/08/20 10:36:15;;;;;;;3.23;0.97;;;;;;;24.34;56.10;102215.72;5034671;28;20028;-69
2023/08/20 10:38:40;;;;;;;;;;;;;;;24.53;57.29;102215.66;5034781;28;20033;-70
2023/08/20 10:41:10;;;;;;;2.15;1.05;;;;;;;24.35;56.86;102210.28;5034504;28;20012;-71
2023/08/20 10:44:00;;;;;;;1.95;0.65;;;;;;;24.56;53.82;102221.72;5033040;28;20052;-71
2023/08/20 10:46:30;;;;;;;3.30;0.80;;;;;;;24.41;53.33;102227.88;5019913;28;20052;-71
2023/08/20 10:49:01;;;;;;;2.30;0.75;;;;;;;24.38;53.28;102228.03;5025890;28;20108;-72
2023/08/20 10:51:35;;;;;;;3.38;1.02;;;;;;;24.44;53.71;102227.72;5013570;28;20040;-70
2023/08/20 10:54:01;;;;;;;1.48;0.55;;;;;;;24.57;54.20;102219.94;5013587;28;20025;-71
2023/08/20 10:56:44;;;;;;;2.20;0.82;;;;;;;24.51;52.27;102229.16;5025677;28;20037;-71
2023/08/20 10:59:17;;;;;;;1.05;0.70;;;;;;;24.52;51.38;102227.31;5026408;28;20024;-71
2023/08/20 11:01:47;;;;;;;4.57;0.90;;;;;;;24.70;52.31;102221.09;5032904;28;20024;-70
2023/08/20 11:04:16;;;;;;;2.15;0.70;;;;;;;24.83;50.11;102221.34;5005649;28;20036;-70
2023/08/20 11:06:41;;;;;;;3.13;0.73;;;;;;;24.84;51.31;102216.84;5031632;28;20021;-71
2023/08/20 11:09:07;;;;;;;2.53;0.60;;;;;;;24.95;49.28;102224.34;5009180;28;20331;-70
2023/08/20 11:11:33;;;;;;;1.90;0.57;;;;;;;24.84;51.50;102212.38;5014980;28;20025;-71
2023/08/20 11:14:07;;;;;;;3.35;0.90;;;;;;;24.88;52.39;102218.44;5025335;28;20083;-70
2023/08/20 11:16:34;;;;;;;2.47;0.63;;;;;;;24.72;49.82;102229.06;5008162;28;20333;-71
2023/08/20 11:18:59;;;;;;;2.28;0.70;;;;;;;24.94;49.88;102222.63;5013769;28;20103;-71
2023/08/20 11:21:28;;;;;;;3.47;0.80;;;;;;;24.95;47.61;102219.00;5016719;28;20060;-71
2023/08/20 11:23:55;;;;;;;1.75;0.70;;;;;;;24.81;51.15;102217.00;5014800;28;20381;-72